TAF PASC
PASC 081732Z 0818/0918 21007KT P6SM OVC022 FM082000 23007KT P6SM BKN050 BKN100=
METAR PASC
WC PASC
WS PASC
WV PASC